createdAt,value
2019-03-15T00:02:01.102Z,7.20
2019-03-15T00:04:27.850Z,7.18
2019-03-15T00:06:54.569Z,7.17
2019-03-15T00:09:21.398Z,7.14
2019-03-15T00:11:48.067Z,7.19
2019-03-15T00:14:14.802Z,7.16
2019-03-15T00:16:41.529Z,7.14
2019-03-15T00:19:08.282Z,7.10
2019-03-15T00:21:35.014Z,7.13
2019-03-15T00:24:01.755Z,7.07
2019-03-15T00:26:28.488Z,7.08
2019-03-15T00:28:55.224Z,7.06
2019-03-15T00:31:21.941Z,7.03
2019-03-15T00:33:48.681Z,7.07
2019-03-15T00:36:15.406Z,7.04
2019-03-15T00:38:42.201Z,6.96
2019-03-15T00:41:09.198Z,7.10
2019-03-15T00:43:35.950Z,7.14
2019-03-15T00:46:02.674Z,7.03
2019-03-15T00:48:29.425Z,6.95
2019-03-15T00:50:56.141Z,6.94
2019-03-15T00:53:22.956Z,6.94
2019-03-15T00:55:49.626Z,6.96
2019-03-15T00:58:16.354Z,7.00
2019-03-15T01:00:43.122Z,6.92
2019-03-15T01:03:09.854Z,7.01
2019-03-15T01:05:36.605Z,6.89
2019-03-15T01:08:03.467Z,6.96
2019-03-15T01:10:30.209Z,6.87
2019-03-15T01:12:56.930Z,6.81
2019-03-15T01:15:23.665Z,6.78
2019-03-15T01:17:50.393Z,6.75
2019-03-15T01:20:17.182Z,6.76
2019-03-15T01:22:43.934Z,6.81
2019-03-15T01:25:10.682Z,6.78
2019-03-15T01:27:37.413Z,6.77
2019-03-15T01:30:04.242Z,6.79
2019-03-15T01:32:30.979Z,6.79
2019-03-15T01:34:57.750Z,6.81
2019-03-15T01:37:24.517Z,6.83
2019-03-15T01:39:51.270Z,6.84
2019-03-15T01:42:17.998Z,6.87
2019-03-15T01:44:44.915Z,6.90
2019-03-15T01:47:11.595Z,6.94
2019-03-15T01:49:38.350Z,6.95
2019-03-15T01:52:05.090Z,7.04
2019-03-15T01:54:31.863Z,7.18
2019-03-15T01:56:58.587Z,7.18
2019-03-15T01:59:25.345Z,7.17
2019-03-15T02:01:52.086Z,7.15
2019-03-15T02:04:18.839Z,7.15
2019-03-15T02:06:45.553Z,7.12
2019-03-15T02:09:12.447Z,7.09
2019-03-15T02:11:39.170Z,7.06
2019-03-15T02:14:05.899Z,7.14
2019-03-15T02:16:32.652Z,7.07
2019-03-15T02:18:59.381Z,7.05
2019-03-15T02:21:26.122Z,7.04
2019-03-15T02:23:52.889Z,7.07
2019-03-15T02:26:19.581Z,7.06
2019-03-15T02:28:46.306Z,7.05
2019-03-15T02:31:13.068Z,7.06
2019-03-15T02:33:39.787Z,7.10
2019-03-15T02:36:06.525Z,7.04
2019-03-15T02:38:33.254Z,7.00
2019-03-15T02:40:59.999Z,6.96
2019-03-15T02:43:26.718Z,6.98
2019-03-15T02:45:53.455Z,6.96
2019-03-15T02:48:20.218Z,6.97
2019-03-15T02:50:46.955Z,6.96
2019-03-15T02:53:13.677Z,6.94
2019-03-15T02:55:40.432Z,6.94
2019-03-15T02:58:07.178Z,6.94
2019-03-15T03:00:33.929Z,6.99
2019-03-15T03:03:00.646Z,7.03
2019-03-15T03:05:27.405Z,7.06
2019-03-15T03:07:54.121Z,7.06
2019-03-15T03:10:20.863Z,7.12
2019-03-15T03:12:47.587Z,7.15
2019-03-15T03:15:14.327Z,7.22
2019-03-15T03:17:41.096Z,7.28
2019-03-15T03:20:07.822Z,7.33
2019-03-15T03:22:36.059Z,7.33
2019-03-15T03:25:01.291Z,7.35
2019-03-15T03:27:28.025Z,7.49
2019-03-15T03:29:54.763Z,7.44
2019-03-15T03:32:21.589Z,7.47
2019-03-15T03:34:48.298Z,7.52
2019-03-15T03:37:15.047Z,7.51
2019-03-15T03:39:41.791Z,7.50
2019-03-15T03:42:08.534Z,7.53
2019-03-15T03:44:35.263Z,7.51
2019-03-15T03:47:02.011Z,7.52
2019-03-15T03:49:28.734Z,7.52
2019-03-15T03:51:55.482Z,7.54
2019-03-15T03:54:22.217Z,7.49
2019-03-15T03:56:48.994Z,7.48
2019-03-15T03:59:15.722Z,7.48
2019-03-15T04:01:42.470Z,7.50
2019-03-15T04:04:09.206Z,7.48
2019-03-15T04:06:35.949Z,7.56
2019-03-15T04:09:02.762Z,7.58
2019-03-15T04:11:29.510Z,7.64
2019-03-15T04:13:56.254Z,7.56
2019-03-15T04:16:23.010Z,7.52
2019-03-15T04:18:49.742Z,7.53
2019-03-15T04:21:16.482Z,7.53
2019-03-15T04:23:43.209Z,7.54
2019-03-15T04:26:10.095Z,7.57
2019-03-15T04:28:36.681Z,7.55
2019-03-15T04:31:03.547Z,7.56
2019-03-15T04:33:30.268Z,7.59
2019-03-15T04:35:57.010Z,7.63
2019-03-15T04:38:23.733Z,7.64
2019-03-15T04:40:50.476Z,7.65
2019-03-15T04:43:17.194Z,7.65
2019-03-15T04:45:43.949Z,7.65
2019-03-15T04:48:10.678Z,7.67
2019-03-15T04:50:37.398Z,7.67
2019-03-15T04:53:04.195Z,7.68
2019-03-15T04:55:30.921Z,7.64
2019-03-15T04:57:57.682Z,7.63
2019-03-15T05:00:24.414Z,7.64
2019-03-15T05:02:51.149Z,7.63
2019-03-15T05:05:17.880Z,7.64
2019-03-15T05:07:44.629Z,7.61
2019-03-15T05:10:11.358Z,7.70
2019-03-15T05:12:38.125Z,7.66
2019-03-15T05:15:05.094Z,7.65
2019-03-15T05:17:31.841Z,7.57
2019-03-15T05:19:58.574Z,7.59
2019-03-15T05:22:25.310Z,7.63
2019-03-15T05:24:52.030Z,7.61
2019-03-15T05:27:18.770Z,7.57
2019-03-15T05:29:45.528Z,7.53
2019-03-15T05:32:12.266Z,7.52
2019-03-15T05:34:38.994Z,7.52
2019-03-15T05:37:05.726Z,7.51
2019-03-15T05:39:32.602Z,7.44
2019-03-15T05:41:59.367Z,7.43
2019-03-15T05:44:26.082Z,7.40
2019-03-15T05:46:52.829Z,7.41
2019-03-15T05:49:19.605Z,7.39
2019-03-15T05:51:46.934Z,7.45
2019-03-15T05:54:13.698Z,7.58
2019-03-15T05:56:40.561Z,7.61
2019-03-15T05:59:07.291Z,7.56
2019-03-15T06:01:34.035Z,7.63
2019-03-15T06:04:00.782Z,7.58
2019-03-15T06:06:27.617Z,7.53
2019-03-15T06:08:54.402Z,7.49
2019-03-15T06:11:21.134Z,7.57
2019-03-15T06:13:47.970Z,7.53
2019-03-15T06:16:14.602Z,7.74
2019-03-15T06:18:41.379Z,7.74
2019-03-15T06:21:08.087Z,7.88
2019-03-15T06:23:34.831Z,7.74
2019-03-15T06:26:01.562Z,7.79
2019-03-15T06:28:28.394Z,7.94
2019-03-15T06:30:55.131Z,7.82
2019-03-15T06:33:21.866Z,7.67
2019-03-15T06:35:48.593Z,7.60
2019-03-15T06:38:27.812Z,7.72
2019-03-15T06:40:54.566Z,7.51
2019-03-15T06:43:21.335Z,7.61
2019-03-15T06:45:48.094Z,7.49
2019-03-15T06:48:14.902Z,7.49
2019-03-15T06:50:41.663Z,7.63
2019-03-15T06:53:08.443Z,7.52
2019-03-15T06:55:35.242Z,7.52
2019-03-15T06:58:02.057Z,7.54
2019-03-15T07:00:28.803Z,7.69
2019-03-15T07:02:55.559Z,7.62
2019-03-15T07:05:22.461Z,7.63
2019-03-15T07:07:49.233Z,7.87
2019-03-15T07:10:16.004Z,7.91
2019-03-15T07:12:42.755Z,7.85
2019-03-15T07:15:09.855Z,7.92
2019-03-15T07:17:36.437Z,7.79
2019-03-15T07:20:03.560Z,7.71
2019-03-15T07:22:30.340Z,7.86
2019-03-15T07:24:57.079Z,7.83
2019-03-15T07:27:23.887Z,7.81
2019-03-15T07:29:51.762Z,7.70
2019-03-15T07:32:18.519Z,7.69
2019-03-15T07:34:45.283Z,7.72
2019-03-15T07:37:12.046Z,7.88
2019-03-15T07:39:38.810Z,7.85
2019-03-15T07:42:05.570Z,7.84
2019-03-15T07:44:32.328Z,7.87
2019-03-15T07:46:59.082Z,7.94
2019-03-15T07:49:25.851Z,7.81
2019-03-15T07:51:52.618Z,7.98
2019-03-15T07:54:19.387Z,7.91
2019-03-15T07:56:46.136Z,7.79
2019-03-15T07:59:12.931Z,7.84
2019-03-15T08:01:39.667Z,7.80
2019-03-15T08:04:16.155Z,7.93
2019-03-15T08:06:34.999Z,8.00
2019-03-15T08:09:00.008Z,7.93
2019-03-15T08:11:26.771Z,8.31
2019-03-15T08:13:53.527Z,8.06
2019-03-15T08:16:20.306Z,8.07
2019-03-15T08:18:47.210Z,8.02
2019-03-15T08:21:13.944Z,7.95
2019-03-15T08:23:40.719Z,7.92
2019-03-15T08:26:07.495Z,8.00
2019-03-15T08:28:34.286Z,8.15
2019-03-15T08:31:01.034Z,8.01
2019-03-15T08:33:27.806Z,7.97
2019-03-15T08:35:54.554Z,7.92
2019-03-15T08:38:21.346Z,8.02
2019-03-15T08:40:48.119Z,8.17
2019-03-15T08:43:14.871Z,8.17
2019-03-15T08:45:41.691Z,8.31
2019-03-15T08:48:08.466Z,8.10
2019-03-15T08:50:35.221Z,8.06
2019-03-15T08:53:01.990Z,8.02
2019-03-15T08:55:28.765Z,8.00
2019-03-15T08:57:55.560Z,8.02
2019-03-15T09:00:22.356Z,8.03
2019-03-15T09:02:49.133Z,8.06
2019-03-15T09:05:15.936Z,8.10
2019-03-15T09:07:42.686Z,8.09
2019-03-15T09:10:21.693Z,8.10
2019-03-15T09:12:36.238Z,8.16
2019-03-15T09:15:03.121Z,8.20
2019-03-15T09:17:29.878Z,8.20
2019-03-15T09:19:56.651Z,8.25
2019-03-15T09:22:23.379Z,8.41
2019-03-15T09:24:50.154Z,8.31
2019-03-15T09:27:16.895Z,8.53
2019-03-15T09:29:43.654Z,8.49
2019-03-15T09:32:10.391Z,8.58
2019-03-15T09:34:37.142Z,8.72
2019-03-15T09:37:03.887Z,8.83
2019-03-15T09:39:30.651Z,8.81
2019-03-15T09:41:57.391Z,8.91
2019-03-15T09:44:24.155Z,8.93
2019-03-15T09:46:50.916Z,9.07
2019-03-15T09:49:17.678Z,9.13
2019-03-15T09:51:44.414Z,9.28
2019-03-15T09:54:11.226Z,9.09
2019-03-15T09:56:38.071Z,9.14
2019-03-15T09:59:04.873Z,9.30
2019-03-15T10:01:35.175Z,9.32
2019-03-15T10:03:58.375Z,9.47
2019-03-15T10:06:25.174Z,9.43
2019-03-15T10:08:51.930Z,9.40
2019-03-15T10:11:18.683Z,9.39
2019-03-15T10:13:45.450Z,9.65
2019-03-15T10:16:14.199Z,9.62
2019-03-15T10:18:40.951Z,9.66
2019-03-15T10:21:09.343Z,9.72
2019-03-15T10:23:34.455Z,9.80
2019-03-15T10:26:01.207Z,9.76
2019-03-15T10:28:28.002Z,9.88
2019-03-15T10:30:54.798Z,9.99
2019-03-15T10:33:21.617Z,9.94
2019-03-15T10:35:48.359Z,10.11
2019-03-15T10:38:16.654Z,10.08
2019-03-15T10:40:41.888Z,10.19
2019-03-15T10:43:08.642Z,10.14
2019-03-15T10:45:35.395Z,10.14
2019-03-15T10:48:02.147Z,10.18
2019-03-15T10:50:28.909Z,10.34
2019-03-15T10:52:55.673Z,10.29
2019-03-15T10:55:22.422Z,10.34
2019-03-15T10:57:49.162Z,10.35
2019-03-15T11:00:15.942Z,10.43
2019-03-15T11:02:42.723Z,10.50
2019-03-15T11:05:09.499Z,10.44
2019-03-15T11:07:36.256Z,10.80
2019-03-15T11:10:03.118Z,10.73
2019-03-15T11:12:29.866Z,10.63
2019-03-15T11:14:56.618Z,10.69
2019-03-15T11:17:23.375Z,10.68
2019-03-15T11:19:50.122Z,10.71
2019-03-15T11:22:16.838Z,10.97
2019-03-15T11:24:43.976Z,10.77
2019-03-15T11:27:10.290Z,10.90
2019-03-15T11:29:37.025Z,10.89
2019-03-15T11:32:03.762Z,10.94
2019-03-15T11:34:30.519Z,10.91
2019-03-15T11:36:58.500Z,10.96
2019-03-15T11:39:23.974Z,10.90
2019-03-15T11:41:50.705Z,11.03
2019-03-15T11:44:17.448Z,11.12
2019-03-15T11:46:44.158Z,11.18
2019-03-15T11:49:10.882Z,11.13
2019-03-15T11:51:37.618Z,11.24
2019-03-15T11:54:04.350Z,11.48
2019-03-15T11:56:31.086Z,11.52
2019-03-15T11:58:57.826Z,11.55
2019-03-15T12:01:24.574Z,11.48
2019-03-15T12:03:53.221Z,11.46
2019-03-15T12:06:18.026Z,11.35
2019-03-15T12:08:44.742Z,11.39
2019-03-15T12:11:11.641Z,11.57
2019-03-15T12:13:38.364Z,11.52
2019-03-15T12:16:05.115Z,11.54
2019-03-15T12:18:31.834Z,11.56
2019-03-15T12:20:58.638Z,11.55
2019-03-15T12:23:25.355Z,11.62
2019-03-15T12:25:52.104Z,11.69
2019-03-15T12:28:18.838Z,11.76
2019-03-15T12:30:45.578Z,11.73
2019-03-15T12:33:12.423Z,11.66
2019-03-15T12:35:39.187Z,11.59
2019-03-15T12:38:05.915Z,11.60
2019-03-15T12:40:32.650Z,11.70
2019-03-15T12:42:59.397Z,11.69
2019-03-15T12:45:26.326Z,11.77
2019-03-15T12:47:53.054Z,11.77
2019-03-15T12:50:19.895Z,11.80
2019-03-15T12:52:48.299Z,11.81
2019-03-15T12:55:13.364Z,11.76
2019-03-15T12:57:40.083Z,11.86
2019-03-15T13:00:09.315Z,11.92
2019-03-15T13:02:36.129Z,11.99
2019-03-15T13:05:03.125Z,12.01
2019-03-15T13:07:29.850Z,12.01
2019-03-15T13:09:56.570Z,11.96
2019-03-15T13:12:24.430Z,11.96
2019-03-15T13:14:50.563Z,11.97
2019-03-15T13:17:17.406Z,11.98
2019-03-15T13:19:54.532Z,12.04
2019-03-15T13:22:10.859Z,11.92
2019-03-15T13:24:37.637Z,11.91
2019-03-15T13:27:07.783Z,11.86
2019-03-15T13:29:31.197Z,11.86
2019-03-15T13:31:57.973Z,11.91
2019-03-15T13:34:24.692Z,11.83
2019-03-15T13:36:51.458Z,11.80
2019-03-15T13:39:18.186Z,11.81
2019-03-15T13:41:45.009Z,11.78
2019-03-15T13:44:11.770Z,11.79
2019-03-15T13:46:38.512Z,11.76
2019-03-15T13:49:05.234Z,11.71
2019-03-15T13:51:32.010Z,11.84
2019-03-15T13:53:58.754Z,11.92
2019-03-15T13:56:25.491Z,11.76
2019-03-15T13:58:57.109Z,11.76
2019-03-15T14:01:18.955Z,11.81
2019-03-15T14:03:45.674Z,11.76
2019-03-15T14:06:12.512Z,11.75
2019-03-15T14:08:39.252Z,11.76
2019-03-15T14:11:06.090Z,11.76
2019-03-15T14:13:32.805Z,11.78
2019-03-15T14:16:03.800Z,11.79
2019-03-15T14:18:40.855Z,11.89
2019-03-15T14:21:07.702Z,11.79
2019-03-15T14:23:34.426Z,11.87
2019-03-15T14:26:01.133Z,11.89
2019-03-15T14:28:27.873Z,11.96
2019-03-15T14:30:54.599Z,12.00
2019-03-15T14:33:21.341Z,11.96
2019-03-15T14:35:48.050Z,11.98
2019-03-15T14:38:14.794Z,12.14
2019-03-15T14:40:41.609Z,12.06
2019-03-15T14:43:08.324Z,12.03
2019-03-15T14:45:34.992Z,12.03
2019-03-15T14:48:01.722Z,11.95
2019-03-15T14:50:28.459Z,11.93
2019-03-15T14:52:55.201Z,11.87
2019-03-15T14:55:21.917Z,11.84
2019-03-15T14:57:53.191Z,11.83
2019-03-15T15:00:15.399Z,11.79
2019-03-15T15:02:42.199Z,11.69
2019-03-15T15:05:09.817Z,11.67
2019-03-15T15:07:36.541Z,11.76
2019-03-15T15:10:03.438Z,11.52
2019-03-15T15:12:30.197Z,11.44
2019-03-15T15:14:57.726Z,11.50
2019-03-15T15:17:23.671Z,11.64
2019-03-15T15:19:50.398Z,11.50
2019-03-15T15:22:17.142Z,11.37
2019-03-15T15:24:43.975Z,11.29
2019-03-15T15:27:10.806Z,11.36
2019-03-15T15:29:37.578Z,11.35
2019-03-15T15:32:04.409Z,11.33
2019-03-15T15:34:31.138Z,11.43
2019-03-15T15:36:57.902Z,11.54
2019-03-15T15:39:24.708Z,11.38
2019-03-15T15:41:51.427Z,11.60
2019-03-15T15:44:18.199Z,11.60
2019-03-15T15:46:45.179Z,11.49
2019-03-15T15:49:12.046Z,11.39
2019-03-15T15:51:38.781Z,11.52
2019-03-15T15:54:06.387Z,11.43
2019-03-15T15:56:33.111Z,11.41
2019-03-15T15:59:02.920Z,11.44
2019-03-15T16:01:26.582Z,11.39
2019-03-15T16:03:53.314Z,11.32
2019-03-15T16:06:20.034Z,11.25
2019-03-15T16:08:46.834Z,11.20
2019-03-15T16:11:13.567Z,11.28
2019-03-15T16:13:40.322Z,11.21
2019-03-15T16:16:07.146Z,11.17
2019-03-15T16:18:33.920Z,11.18
2019-03-15T16:21:00.610Z,11.12
2019-03-15T16:23:30.160Z,11.25
2019-03-15T16:25:54.079Z,11.15
2019-03-15T16:28:30.872Z,11.16
2019-03-15T16:30:47.552Z,11.31
2019-03-15T16:33:14.322Z,11.23
2019-03-15T16:35:41.042Z,11.29
2019-03-15T16:38:07.770Z,11.16
2019-03-15T16:40:34.494Z,11.18
2019-03-15T16:43:01.230Z,11.13
2019-03-15T16:45:28.013Z,11.11
2019-03-15T16:47:54.745Z,11.06
2019-03-15T16:50:21.459Z,11.05
2019-03-15T16:52:48.249Z,11.15
2019-03-15T16:55:14.966Z,11.10
2019-03-15T16:57:41.708Z,11.15
2019-03-15T17:00:09.049Z,11.18
2019-03-15T17:02:35.786Z,11.14
2019-03-15T17:05:02.537Z,11.13
2019-03-15T17:07:29.256Z,11.22
2019-03-15T17:09:55.988Z,11.23
2019-03-15T17:12:22.753Z,11.20
2019-03-15T17:14:49.493Z,11.16
2019-03-15T17:17:16.260Z,11.15
2019-03-15T17:19:43.002Z,11.04
2019-03-15T17:22:09.855Z,11.17
2019-03-15T17:24:36.568Z,11.06
2019-03-15T17:27:03.281Z,11.09
2019-03-15T17:29:30.030Z,11.12
2019-03-15T17:31:56.749Z,11.12
2019-03-15T17:34:23.502Z,11.11
2019-03-15T17:36:50.247Z,11.08
2019-03-15T17:39:17.014Z,11.06
2019-03-15T17:41:43.743Z,11.06
2019-03-15T17:44:10.633Z,11.09
2019-03-15T17:46:37.365Z,11.20
2019-03-15T17:49:04.145Z,11.17
2019-03-15T17:51:30.830Z,11.14
2019-03-15T17:53:57.565Z,11.17
2019-03-15T17:56:24.310Z,11.20
2019-03-15T17:58:51.055Z,11.19
2019-03-15T18:01:17.790Z,11.26
2019-03-15T18:03:47.303Z,11.20
2019-03-15T18:06:11.249Z,11.20
2019-03-15T18:08:37.987Z,11.17
2019-03-15T18:11:04.719Z,11.25
2019-03-15T18:13:31.506Z,11.33
2019-03-15T18:15:58.222Z,11.23
2019-03-15T18:18:25.043Z,11.25
2019-03-15T18:20:51.749Z,11.23
2019-03-15T18:23:18.518Z,11.14
2019-03-15T18:25:45.432Z,11.14
2019-03-15T18:28:12.125Z,11.16
2019-03-15T18:30:38.898Z,11.16
2019-03-15T18:33:05.628Z,11.15
2019-03-15T18:35:33.890Z,11.12
2019-03-15T18:37:59.203Z,11.09
2019-03-15T18:40:25.943Z,11.11
2019-03-15T18:42:52.661Z,11.17
2019-03-15T18:45:19.403Z,11.12
2019-03-15T18:47:46.245Z,11.20
2019-03-15T18:50:16.473Z,11.14
2019-03-15T18:52:43.212Z,11.15
2019-03-15T18:55:09.949Z,11.10
2019-03-15T18:57:36.662Z,11.15
2019-03-15T19:00:03.950Z,11.12
2019-03-15T19:02:30.780Z,11.15
2019-03-15T19:04:57.414Z,11.21
2019-03-15T19:07:24.161Z,11.14
2019-03-15T19:09:50.886Z,11.17
2019-03-15T19:12:19.664Z,11.17
2019-03-15T19:14:46.450Z,11.17
2019-03-15T19:17:13.285Z,11.12
2019-03-15T19:19:40.021Z,11.16
2019-03-15T19:22:06.782Z,11.11
2019-03-15T19:24:33.521Z,11.10
2019-03-15T19:27:00.238Z,11.21
2019-03-15T19:29:27.005Z,11.18
2019-03-15T19:31:53.740Z,11.14
2019-03-15T19:34:20.477Z,11.15
2019-03-15T19:36:47.194Z,11.17
2019-03-15T19:39:13.947Z,11.14
2019-03-15T19:41:40.706Z,11.21
2019-03-15T19:44:07.442Z,11.16
2019-03-15T19:46:34.253Z,11.13
2019-03-15T19:49:00.994Z,11.21
2019-03-15T19:51:27.758Z,11.21
2019-03-15T19:53:54.553Z,11.20
2019-03-15T19:56:21.194Z,11.20
2019-03-15T19:58:47.954Z,11.19
2019-03-15T20:01:14.701Z,11.20
2019-03-15T20:03:44.323Z,11.16
2019-03-15T20:06:08.383Z,11.25
2019-03-15T20:08:35.113Z,11.22
2019-03-15T20:11:01.838Z,11.29
2019-03-15T20:13:28.550Z,11.26
2019-03-15T20:15:55.286Z,11.25
2019-03-15T20:18:22.011Z,11.26
2019-03-15T20:20:48.850Z,11.32
2019-03-15T20:23:15.654Z,11.34
2019-03-15T20:25:42.382Z,11.28
2019-03-15T20:28:09.142Z,11.27
2019-03-15T20:30:35.912Z,11.30
2019-03-15T20:33:02.631Z,11.27
2019-03-15T20:35:29.365Z,11.36
2019-03-15T20:37:56.205Z,11.28
2019-03-15T20:40:22.951Z,11.29
2019-03-15T20:42:49.678Z,11.35
2019-03-15T20:45:16.426Z,11.35
2019-03-15T20:47:43.175Z,11.35
2019-03-15T20:50:10.708Z,11.28
2019-03-15T20:52:37.522Z,11.27
2019-03-15T20:55:04.298Z,11.32
2019-03-15T20:57:31.015Z,11.34
2019-03-15T20:59:57.755Z,11.39
2019-03-15T21:02:24.466Z,11.36
2019-03-15T21:04:51.209Z,11.41
2019-03-15T21:07:17.930Z,11.53
2019-03-15T21:09:44.671Z,11.69
2019-03-15T21:12:11.586Z,11.65
2019-03-15T21:14:38.336Z,11.68
2019-03-15T21:17:05.053Z,11.57
2019-03-15T21:19:31.801Z,11.57
2019-03-15T21:21:58.619Z,11.38
2019-03-15T21:24:25.357Z,11.31
2019-03-15T21:26:52.242Z,11.45
2019-03-15T21:29:18.978Z,11.59
2019-03-15T21:31:45.737Z,11.65
2019-03-15T21:34:12.454Z,11.47
2019-03-15T21:36:39.198Z,11.52
2019-03-15T21:39:07.079Z,11.62
2019-03-15T21:41:33.822Z,11.46
2019-03-15T21:44:00.550Z,11.47
2019-03-15T21:46:27.301Z,11.51
2019-03-15T21:48:54.036Z,11.41
2019-03-15T21:51:20.774Z,11.56
2019-03-15T21:53:47.501Z,11.43
2019-03-15T21:56:14.248Z,11.31
2019-03-15T21:58:40.982Z,11.42
2019-03-15T22:01:07.734Z,11.33
2019-03-15T22:03:34.472Z,11.43
2019-03-15T22:06:01.213Z,11.39
2019-03-15T22:08:27.944Z,11.25
2019-03-15T22:10:54.681Z,11.30
2019-03-15T22:13:21.423Z,11.27
2019-03-15T22:15:48.157Z,11.25
2019-03-15T22:18:14.877Z,11.21
2019-03-15T22:20:41.614Z,11.14
2019-03-15T22:23:08.334Z,11.18
2019-03-15T22:25:35.074Z,11.24
2019-03-15T22:28:01.814Z,11.23
2019-03-15T22:30:28.526Z,11.22
2019-03-15T22:32:55.274Z,11.25
2019-03-15T22:35:22.009Z,11.25
2019-03-15T22:37:48.741Z,11.19
2019-03-15T22:40:15.466Z,11.20
2019-03-15T22:42:42.198Z,11.21
2019-03-15T22:45:08.925Z,11.11
2019-03-15T22:47:35.700Z,11.12
2019-03-15T22:50:02.483Z,11.07
2019-03-15T22:52:29.210Z,11.10
2019-03-15T22:54:55.942Z,11.09
2019-03-15T22:57:22.686Z,11.10
2019-03-15T22:59:49.435Z,11.06
2019-03-15T23:02:16.181Z,11.43
2019-03-15T23:04:42.886Z,11.29
2019-03-15T23:07:09.641Z,11.28
2019-03-15T23:09:36.355Z,11.04
2019-03-15T23:12:03.087Z,11.10
2019-03-15T23:14:29.814Z,11.08
2019-03-15T23:16:56.552Z,11.15
2019-03-15T23:19:23.402Z,11.06
2019-03-15T23:21:50.138Z,11.09
2019-03-15T23:24:16.862Z,11.22
2019-03-15T23:26:43.598Z,11.13
2019-03-15T23:29:10.315Z,11.05
2019-03-15T23:31:43.470Z,11.01
2019-03-15T23:34:03.890Z,10.98
2019-03-15T23:36:30.666Z,11.00
2019-03-15T23:38:57.378Z,10.98
2019-03-15T23:41:24.095Z,11.02
2019-03-15T23:43:50.831Z,10.99
2019-03-15T23:46:17.554Z,11.06
2019-03-15T23:48:44.310Z,11.25
2019-03-15T23:51:11.038Z,10.98
2019-03-15T23:53:37.788Z,11.17
2019-03-15T23:56:04.509Z,11.03
2019-03-15T23:58:31.254Z,11.02
